Time;durP1;ratioP1;P1;durP2;ratioP2;P2;SDS_P1;SDS_P2;PMS_P1;PMS_P2;Temp;Humidity;BMP_temperature;BMP_pressure;BME280_temperature;BME280_humidity;BME280_pressure;Samples;Min_cycle;Max_cycle;Signal;HPM_P1;HPM_P2
2023/08/16 00:01:56;;;;;;;7.15;2.22;;;;;;;18.48;87.72;101800.31;5028963;28;20033;-74
2023/08/16 00:04:22;;;;;;;6.25;2.17;;;;;;;18.49;88.31;101796.56;5017205;28;20091;-74
2023/08/16 00:06:47;;;;;;;10.93;2.70;;;;;;;18.47;88.00;101798.59;5009264;28;20725;-74
2023/08/16 00:09:15;;;;;;;6.50;2.30;;;;;;;18.46;87.47;101803.19;5009470;28;20037;-74
2023/08/16 00:11:41;;;;;;;5.25;2.90;;;;;;;18.46;88.11;101799.56;5009397;28;20046;-73
2023/08/16 00:14:06;;;;;;;6.38;3.20;;;;;;;18.41;88.43;101796.38;5022823;28;20163;-74
2023/08/16 00:16:32;;;;;;;3.10;1.95;;;;;;;18.42;87.81;101799.00;5028366;28;20069;-74
2023/08/16 00:18:57;;;;;;;5.10;2.78;;;;;;;18.42;88.24;101810.03;5020417;28;20025;-74
2023/08/16 00:21:22;;;;;;;7.95;2.30;;;;;;;18.37;88.48;101809.53;5009094;28;20089;-74
2023/08/16 00:23:48;;;;;;;6.40;2.80;;;;;;;18.32;89.73;101806.31;5009210;28;20038;-74
2023/08/16 00:26:13;;;;;;;6.05;2.50;;;;;;;18.29;88.50;101804.75;5009259;28;20048;-74
2023/08/16 00:28:39;;;;;;;4.25;2.30;;;;;;;18.27;88.62;101811.38;5027801;28;20346;-74
2023/08/16 00:31:04;;;;;;;4.80;2.97;;;;;;;18.21;88.89;101809.19;5021803;28;20045;-73
2023/08/16 00:33:30;;;;;;;4.72;2.55;;;;;;;18.17;88.61;101802.19;5007206;28;20532;-74
2023/08/16 00:35:55;;;;;;;4.13;2.38;;;;;;;18.16;88.40;101803.22;5008512;28;20038;-74
2023/08/16 00:38:21;;;;;;;3.67;2.13;;;;;;;18.13;89.03;101807.09;5006912;28;20034;-73
2023/08/16 00:40:48;;;;;;;5.53;2.83;;;;;;;18.10;88.76;101800.00;5017929;28;20041;-72
2023/08/16 00:43:14;;;;;;;5.10;2.90;;;;;;;18.09;88.64;101806.53;5026483;28;20431;-70
2023/08/16 00:45:40;;;;;;;5.30;2.85;;;;;;;18.03;89.43;101811.69;5026306;28;20053;-74
2023/08/16 00:48:07;;;;;;;6.15;2.60;;;;;;;17.97;88.58;101810.38;5027374;28;20061;-74
2023/08/16 00:50:32;;;;;;;5.75;2.65;;;;;;;17.94;89.06;101812.50;5028334;28;20437;-74
2023/08/16 00:52:58;;;;;;;6.00;2.70;;;;;;;17.90;88.40;101819.28;5026928;28;20080;-74
2023/08/16 00:55:23;;;;;;;3.83;2.65;;;;;;;17.83;88.78;101822.59;5025454;28;20397;-74
2023/08/16 00:57:49;;;;;;;5.47;2.80;;;;;;;17.77;89.21;101814.00;5006729;28;20080;-74
2023/08/16 01:00:14;;;;;;;7.35;3.10;;;;;;;17.73;89.01;101820.75;5009130;28;20405;-74
2023/08/16 01:02:40;;;;;;;10.30;2.95;;;;;;;17.69;88.57;101827.53;5027865;28;20038;-74
2023/08/16 01:05:08;;;;;;;4.75;2.90;;;;;;;17.65;88.49;101835.16;5027498;28;20024;-74
2023/08/16 01:07:33;;;;;;;4.85;3.45;;;;;;;17.58;88.26;101826.59;5027928;28;20037;-74
2023/08/16 01:10:01;;;;;;;6.20;3.15;;;;;;;17.53;88.85;101826.09;5043230;28;20048;-74
2023/08/16 01:12:34;;;;;;;7.80;3.00;;;;;;;17.48;89.24;101833.00;5023990;28;20033;-74
2023/08/16 01:15:18;;;;;;;3.88;3.10;;;;;;;17.46;88.72;101830.38;5006898;28;20048;-74
2023/08/16 01:17:44;;;;;;;5.63;2.80;;;;;;;17.42;89.46;101834.41;5007905;28;20361;-74
2023/08/16 01:20:12;;;;;;;7.97;3.00;;;;;;;17.39;89.31;101831.03;5025196;28;20038;-73
2023/08/16 01:22:53;;;;;;;7.80;3.33;;;;;;;17.38;89.74;101834.78;5026881;28;20508;-74
2023/08/16 01:25:35;;;;;;;4.95;3.58;;;;;;;17.39;90.22;101836.53;5026470;28;20539;-74
2023/08/16 01:28:02;;;;;;;11.77;4.00;;;;;;;17.40;90.58;101841.91;5025066;28;20084;-74
2023/08/16 01:30:29;;;;;;;8.95;3.80;;;;;;;17.41;90.33;101843.66;5026448;28;20052;-74
2023/08/16 01:32:54;;;;;;;4.00;3.17;;;;;;;17.44;90.35;101843.41;5025852;28;20037;-69
2023/08/16 01:35:21;;;;;;;6.28;3.60;;;;;;;17.44;90.22;101845.25;5026134;28;20042;-73
2023/08/16 01:37:47;;;;;;;7.18;3.75;;;;;;;17.45;90.32;101850.66;5026134;28;20116;-74
2023/08/16 01:40:13;;;;;;;4.20;3.45;;;;;;;17.45;90.24;101858.03;5027607;28;20121;-73
2023/08/16 01:42:45;;;;;;;8.65;4.40;;;;;;;17.42;91.84;101858.28;5015042;28;20441;-74
2023/08/16 01:45:13;;;;;;;8.52;3.97;;;;;;;17.44;91.28;101851.66;5006391;28;20128;-72
2023/08/16 01:47:39;;;;;;;9.38;3.90;;;;;;;17.46;91.60;101852.38;5027531;28;20037;-74
2023/08/16 01:50:05;;;;;;;5.47;3.78;;;;;;;17.46;91.78;101855.13;5009753;28;20187;-73
2023/08/16 01:52:32;;;;;;;9.43;3.78;;;;;;;17.47;91.64;101839.50;5007780;28;20048;-74
2023/08/16 01:54:57;;;;;;;10.73;4.38;;;;;;;17.41;92.58;101843.66;5022830;28;20038;-73
2023/08/16 01:57:23;;;;;;;6.88;4.07;;;;;;;17.39;91.51;101842.03;5016503;28;20394;-74
2023/08/16 01:59:48;;;;;;;5.70;3.42;;;;;;;17.42;91.98;101841.78;5007332;28;20049;-71
2023/08/16 02:02:14;;;;;;;6.38;4.00;;;;;;;17.42;91.83;101850.03;5005765;28;20115;-73
2023/08/16 02:04:39;;;;;;;8.88;4.10;;;;;;;17.44;92.93;101853.50;5020376;28;20021;-72
2023/08/16 02:07:04;;;;;;;5.40;3.63;;;;;;;17.43;92.47;101849.03;5025906;28;20041;-72
2023/08/16 02:09:30;;;;;;;7.43;3.80;;;;;;;17.45;92.48;101847.91;5025879;28;20045;-73
2023/08/16 02:11:55;;;;;;;6.70;3.80;;;;;;;17.47;93.01;101853.25;5021343;28;20064;-73
2023/08/16 02:14:20;;;;;;;9.05;4.55;;;;;;;17.43;92.30;101858.16;5009202;28;20440;-73
2023/08/16 02:16:46;;;;;;;6.68;4.35;;;;;;;17.40;93.52;101847.41;5009985;28;20018;-74
2023/08/16 02:19:11;;;;;;;5.38;4.03;;;;;;;17.35;92.98;101849.69;5020154;28;20041;-73
2023/08/16 02:21:36;;;;;;;6.75;4.20;;;;;;;17.32;92.79;101849.94;5031517;28;20037;-74
2023/08/16 02:24:03;;;;;;;5.95;4.00;;;;;;;17.33;92.64;101854.44;5026591;28;20410;-73
2023/08/16 02:26:28;;;;;;;8.50;4.47;;;;;;;17.37;92.51;101855.06;5012710;28;20049;-74
2023/08/16 02:28:55;;;;;;;8.15;5.32;;;;;;;17.37;92.83;101855.06;5029530;28;20127;-74
2023/08/16 02:31:21;;;;;;;7.68;4.70;;;;;;;17.36;92.66;101851.44;5030256;28;20112;-74
2023/08/16 02:33:46;;;;;;;7.90;4.47;;;;;;;17.37;92.71;101852.31;5029222;28;20041;-70
2023/08/16 02:36:12;;;;;;;6.15;4.75;;;;;;;17.39;92.82;101858.53;5030911;28;20152;-74
2023/08/16 02:38:37;;;;;;;8.52;4.68;;;;;;;17.40;93.22;101858.44;5013101;28;20026;-74
2023/08/16 02:41:02;;;;;;;10.35;4.90;;;;;;;17.40;93.30;101850.19;5009774;28;20046;-73
2023/08/16 02:43:28;;;;;;;6.47;4.07;;;;;;;17.39;94.21;101855.78;5016394;28;20161;-73
2023/08/16 02:45:53;;;;;;;8.63;4.40;;;;;;;17.38;95.05;101859.53;5030629;28;20426;-74
2023/08/16 02:48:19;;;;;;;7.68;4.60;;;;;;;17.37;93.96;101855.94;5025815;28;20040;-74
2023/08/16 02:50:45;;;;;;;7.22;4.97;;;;;;;17.36;94.24;101847.81;5009663;28;20018;-74
2023/08/16 02:53:10;;;;;;;9.88;5.45;;;;;;;17.30;94.31;101844.59;5010038;28;20402;-72
2023/08/16 02:55:36;;;;;;;15.25;6.13;;;;;;;17.23;94.20;101832.34;5010334;28;20034;-73
2023/08/16 02:58:01;;;;;;;12.30;6.90;;;;;;;17.20;93.21;101832.59;5023501;28;20460;-74
2023/08/16 03:00:26;;;;;;;11.35;5.40;;;;;;;17.18;93.40;101831.84;5030556;28;20049;-73
2023/08/16 03:02:52;;;;;;;11.27;5.55;;;;;;;17.17;93.15;101849.38;5012523;28;20042;-74
2023/08/16 03:05:17;;;;;;;8.50;5.50;;;;;;;17.17;93.06;101846.63;5027940;28;20030;-74
2023/08/16 03:07:43;;;;;;;7.55;5.28;;;;;;;17.18;93.49;101845.59;5029123;28;20587;-74
2023/08/16 03:10:09;;;;;;;9.88;5.57;;;;;;;17.20;93.74;101846.34;5023610;28;20030;-74
2023/08/16 03:12:34;;;;;;;10.00;6.18;;;;;;;17.19;94.69;101849.22;5010839;28;20034;-74
2023/08/16 03:14:59;;;;;;;14.43;5.68;;;;;;;17.20;93.62;101846.34;5025946;28;20374;-74
2023/08/16 03:17:25;;;;;;;8.57;6.03;;;;;;;17.22;93.75;101848.97;5010016;28;20529;-73
2023/08/16 03:19:50;;;;;;;10.90;6.38;;;;;;;17.22;93.88;101851.72;5024033;28;20087;-74
2023/08/16 03:22:16;;;;;;;13.25;5.82;;;;;;;17.24;94.67;101860.72;5028907;28;20549;-73
2023/08/16 03:24:42;;;;;;;8.77;6.07;;;;;;;17.20;94.20;101851.84;5028084;28;20113;-73
2023/08/16 03:27:08;;;;;;;9.32;6.20;;;;;;;17.20;94.45;101845.47;5028135;28;20135;-73
2023/08/16 03:29:35;;;;;;;7.93;6.15;;;;;;;17.20;94.48;101848.22;5028451;28;20542;-74
2023/08/16 03:32:02;;;;;;;9.05;6.38;;;;;;;17.20;95.42;101848.22;5027664;28;20094;-74
2023/08/16 03:34:30;;;;;;;8.93;6.13;;;;;;;17.20;95.28;101848.22;5027402;28;20080;-74
2023/08/16 03:36:56;;;;;;;11.48;6.40;;;;;;;17.20;94.79;101857.34;5028453;28;20060;-74
2023/08/16 03:39:22;;;;;;;11.02;6.18;;;;;;;17.18;95.85;101848.34;5027777;28;20075;-74
2023/08/16 03:41:48;;;;;;;13.85;6.00;;;;;;;17.18;95.06;101861.25;5023181;28;20073;-74
2023/08/16 03:44:13;;;;;;;9.45;6.65;;;;;;;17.19;95.12;101858.34;5021403;28;20421;-73
2023/08/16 03:46:40;;;;;;;11.07;6.80;;;;;;;17.20;94.67;101859.22;5028430;28;20029;-66
2023/08/16 03:49:05;;;;;;;9.77;6.90;;;;;;;17.18;95.59;101866.75;5021775;28;20056;-67
2023/08/16 03:51:31;;;;;;;8.63;6.22;;;;;;;17.18;95.71;101862.13;5029606;28;20046;-66
2023/08/16 03:53:56;;;;;;;7.75;6.28;;;;;;;17.20;95.51;101861.97;5029558;28;20037;-67
2023/08/16 03:56:22;;;;;;;8.80;6.18;;;;;;;17.19;94.76;101862.97;5026963;28;20078;-73
2023/08/16 03:58:47;;;;;;;13.07;6.78;;;;;;;17.18;94.79;101864.00;5009449;28;20076;-72
2023/08/16 04:01:13;;;;;;;9.95;7.15;;;;;;;17.14;94.08;101866.13;5007330;28;20408;-73
2023/08/16 04:03:38;;;;;;;7.88;5.80;;;;;;;17.14;93.81;101876.25;5027960;28;20123;-74
2023/08/16 04:06:10;;;;;;;12.18;7.25;;;;;;;17.12;94.65;101872.75;5029314;28;20040;-67
2023/08/16 04:08:40;;;;;;;11.05;7.68;;;;;;;17.09;94.00;101877.50;5037032;28;20052;-66
2023/08/16 04:11:06;;;;;;;10.30;6.95;;;;;;;17.08;94.29;101880.38;5027484;28;20164;-67
2023/08/16 04:13:33;;;;;;;8.27;6.75;;;;;;;17.06;95.54;101875.00;5026771;28;20127;-66
2023/08/16 04:15:58;;;;;;;11.30;7.07;;;;;;;17.02;95.53;101875.38;5026860;28;20029;-66
2023/08/16 04:18:25;;;;;;;10.00;6.50;;;;;;;16.96;95.25;101870.41;5042691;28;20045;-66
2023/08/16 04:20:52;;;;;;;14.52;6.85;;;;;;;16.92;95.06;101879.91;5029106;28;20075;-66
2023/08/16 04:23:19;;;;;;;11.30;6.63;;;;;;;16.88;95.56;101886.66;5028795;28;20029;-66
2023/08/16 04:25:45;;;;;;;10.15;7.15;;;;;;;16.85;94.66;101890.53;5027139;28;20032;-67
2023/08/16 04:28:11;;;;;;;10.43;7.28;;;;;;;16.83;94.32;101892.53;5025803;28;20392;-69
2023/08/16 04:30:36;;;;;;;11.13;7.45;;;;;;;16.78;94.67;101889.28;5028211;28;20025;-68
2023/08/16 04:33:01;;;;;;;11.77;7.10;;;;;;;16.75;95.35;101884.94;5025307;28;20048;-66
2023/08/16 04:35:27;;;;;;;9.63;7.13;;;;;;;16.72;95.42;101884.31;5027364;28;20031;-67
2023/08/16 04:37:52;;;;;;;10.35;7.20;;;;;;;16.67;95.15;101881.91;5024717;28;20034;-66
2023/08/16 04:40:18;;;;;;;10.85;7.32;;;;;;;16.67;94.79;101883.78;5026227;28;20401;-66
2023/08/16 04:42:44;;;;;;;12.60;7.78;;;;;;;16.67;94.40;101879.16;5025543;28;20029;-67
2023/08/16 04:45:10;;;;;;;8.68;7.30;;;;;;;16.62;96.57;101881.41;5027783;28;20392;-66
2023/08/16 04:47:36;;;;;;;13.13;7.30;;;;;;;16.60;96.08;101880.66;5027552;28;20041;-66
2023/08/16 04:50:06;;;;;;;11.60;7.40;;;;;;;16.63;96.74;101882.28;5010514;28;20045;-69
2023/08/16 04:52:33;;;;;;;13.13;7.85;;;;;;;16.63;96.01;101877.66;5007155;28;20117;-67
2023/08/16 04:54:59;;;;;;;11.38;8.07;;;;;;;16.63;95.30;101880.38;5008823;28;20062;-67
2023/08/16 04:57:25;;;;;;;14.57;8.10;;;;;;;16.64;95.65;101884.00;5034247;28;20037;-67
2023/08/16 04:59:50;;;;;;;9.88;6.93;;;;;;;16.67;96.03;101889.28;5006119;28;20133;-66
2023/08/16 05:02:16;;;;;;;11.77;7.88;;;;;;;16.69;96.50;101884.50;5022266;28;20072;-66
2023/08/16 05:04:42;;;;;;;9.77;7.10;;;;;;;16.70;95.48;101891.78;5016589;28;20036;-68
2023/08/16 05:07:07;;;;;;;12.68;7.90;;;;;;;16.72;94.61;101900.78;5008723;28;20041;-67
2023/08/16 05:09:32;;;;;;;10.23;8.38;;;;;;;16.72;94.77;101900.78;5015554;28;20036;-66
2023/08/16 05:11:58;;;;;;;11.27;8.20;;;;;;;16.73;94.37;101908.03;5027928;28;20044;-67
2023/08/16 05:14:23;;;;;;;11.25;7.68;;;;;;;16.73;94.09;101905.28;5025132;28;20049;-67
2023/08/16 05:16:49;;;;;;;8.48;6.80;;;;;;;16.73;94.35;101899.78;5013117;28;20033;-66
2023/08/16 05:19:14;;;;;;;11.73;7.78;;;;;;;16.65;94.48;101897.66;5008383;28;20063;-67
2023/08/16 05:21:40;;;;;;;13.20;8.40;;;;;;;16.63;94.63;101904.25;5006625;28;20394;-66
2023/08/16 05:24:06;;;;;;;19.35;9.32;;;;;;;16.55;94.81;101903.00;5007800;28;20345;-69
2023/08/16 05:26:31;;;;;;;13.10;8.80;;;;;;;16.48;95.04;101906.38;5007271;28;20038;-66
2023/08/16 05:28:58;;;;;;;12.05;8.50;;;;;;;16.47;95.05;101911.00;5007365;28;20029;-66
2023/08/16 05:31:23;;;;;;;9.85;7.22;;;;;;;16.53;94.70;101920.59;5007489;28;20042;-66
2023/08/16 05:33:48;;;;;;;13.45;8.45;;;;;;;16.57;94.77;101917.50;5000239;28;20378;-67
2023/08/16 05:36:14;;;;;;;14.60;8.00;;;;;;;16.59;94.69;101914.59;5006172;28;20041;-67
2023/08/16 05:38:39;;;;;;;11.90;8.25;;;;;;;16.64;94.53;101914.22;5008931;28;20042;-67
2023/08/16 05:41:05;;;;;;;14.40;8.52;;;;;;;16.67;94.80;101916.75;5005674;28;20032;-66
2023/08/16 05:43:31;;;;;;;11.05;7.63;;;;;;;16.73;94.58;101916.28;5018272;28;20045;-67
2023/08/16 05:45:57;;;;;;;13.10;8.13;;;;;;;16.74;95.06;101913.41;5011182;28;20111;-67
2023/08/16 05:48:22;;;;;;;9.98;8.32;;;;;;;16.79;94.92;101916.66;5015117;28;20072;-67
2023/08/16 05:50:48;;;;;;;11.32;7.50;;;;;;;16.82;93.62;101918.28;5026942;28;20112;-67
2023/08/16 05:53:13;;;;;;;12.23;7.85;;;;;;;16.89;93.13;101918.66;5026670;28;20029;-66
2023/08/16 05:55:38;;;;;;;13.18;7.70;;;;;;;16.96;95.17;101929.00;5026407;28;20025;-67
2023/08/16 05:58:04;;;;;;;10.93;7.97;;;;;;;17.01;93.86;101935.00;5025577;28;20049;-68
2023/08/16 06:00:30;;;;;;;15.80;7.82;;;;;;;17.08;93.78;101941.75;5027281;28;20041;-68
2023/08/16 06:02:55;;;;;;;12.82;7.68;;;;;;;17.12;93.76;101941.50;5026202;28;20041;-66
2023/08/16 06:05:20;;;;;;;13.13;7.68;;;;;;;17.16;94.06;101943.88;5008656;28;20041;-66
2023/08/16 06:07:46;;;;;;;8.90;7.13;;;;;;;17.19;92.82;101949.09;5007708;28;20030;-69
2023/08/16 06:10:11;;;;;;;12.18;7.45;;;;;;;17.21;93.51;101951.75;5007314;28;20137;-68
2023/08/16 06:12:37;;;;;;;12.07;7.78;;;;;;;17.15;92.16;101941.25;5014480;28;20565;-68
2023/08/16 06:15:03;;;;;;;12.27;7.00;;;;;;;17.09;92.93;101942.63;5025552;28;20033;-67
2023/08/16 06:17:29;;;;;;;14.38;7.75;;;;;;;17.02;93.01;101936.78;5025115;28;20037;-67
2023/08/16 06:19:55;;;;;;;13.75;8.25;;;;;;;17.06;93.86;101937.38;5022563;28;20029;-68
2023/08/16 06:22:20;;;;;;;11.27;7.40;;;;;;;17.10;93.43;101933.38;5042522;28;20512;-66
2023/08/16 06:24:46;;;;;;;11.45;6.97;;;;;;;17.18;94.42;101939.13;5026420;28;20046;-67
2023/08/16 06:27:12;;;;;;;12.25;7.45;;;;;;;17.23;93.24;101920.34;5018129;28;20069;-69
2023/08/16 06:29:37;;;;;;;10.23;6.93;;;;;;;17.25;92.72;101920.22;5007351;28;20115;-67
2023/08/16 06:32:03;;;;;;;11.10;7.05;;;;;;;17.38;92.99;101923.69;5021252;28;20037;-68
2023/08/16 06:34:29;;;;;;;8.73;7.03;;;;;;;17.42;92.27;101938.94;5019946;28;20382;-66
2023/08/16 06:36:55;;;;;;;13.27;7.05;;;;;;;17.39;91.25;101941.94;5027440;28;20044;-67
2023/08/16 06:39:21;;;;;;;10.23;6.63;;;;;;;17.40;90.89;101931.84;5007319;28;20403;-66
2023/08/16 06:41:47;;;;;;;7.80;6.18;;;;;;;17.49;91.08;101937.44;5007143;28;20507;-67
2023/08/16 06:44:12;;;;;;;10.80;6.65;;;;;;;17.53;90.84;101938.94;5018236;28;20041;-67
2023/08/16 06:46:38;;;;;;;11.20;7.15;;;;;;;17.51;90.49;101937.28;5027020;28;20116;-66
2023/08/16 06:49:03;;;;;;;14.07;7.03;;;;;;;17.48;90.25;101940.28;5018907;28;20030;-66
2023/08/16 06:51:28;;;;;;;15.00;6.88;;;;;;;17.44;89.89;101942.47;5006540;28;20034;-67
2023/08/16 06:53:54;;;;;;;10.13;6.82;;;;;;;17.45;92.44;101940.56;5007336;28;20054;-70
2023/08/16 06:56:19;;;;;;;10.68;6.70;;;;;;;17.43;90.54;101932.44;5006491;28;20045;-69
2023/08/16 06:58:45;;;;;;;11.35;6.88;;;;;;;17.49;89.95;101934.69;5038371;28;20072;-67
2023/08/16 07:01:11;;;;;;;10.35;6.90;;;;;;;17.51;89.32;101943.66;5008410;28;20049;-66
2023/08/16 07:03:37;;;;;;;12.32;6.72;;;;;;;17.56;89.48;101946.91;5015621;28;20033;-67
2023/08/16 07:06:02;;;;;;;11.45;6.65;;;;;;;17.64;89.15;101954.53;5030168;28;20099;-68
2023/08/16 07:08:28;;;;;;;10.52;6.40;;;;;;;17.71;89.84;101961.25;5020124;28;20517;-68
2023/08/16 07:10:54;;;;;;;12.10;6.38;;;;;;;17.85;89.59;101965.59;5010361;28;20041;-66
2023/08/16 07:13:19;;;;;;;8.50;6.22;;;;;;;17.95;88.51;101969.34;5016588;28;20017;-67
2023/08/16 07:15:45;;;;;;;14.90;6.65;;;;;;;18.05;89.78;101962.03;5045366;28;20443;-67
2023/08/16 07:18:10;;;;;;;10.73;6.10;;;;;;;18.13;87.18;101958.59;5027789;28;20048;-70
2023/08/16 07:20:36;;;;;;;9.38;6.30;;;;;;;18.19;86.29;101959.97;5030735;28;20041;-67
2023/08/16 07:23:01;;;;;;;9.07;6.07;;;;;;;18.16;86.40;101954.72;5017794;28;20141;-67
2023/08/16 07:25:27;;;;;;;10.25;5.85;;;;;;;18.17;86.78;101962.84;5010369;28;20033;-68
2023/08/16 07:27:52;;;;;;;12.38;6.55;;;;;;;18.20;88.82;101956.19;5010103;28;20105;-67
2023/08/16 07:30:18;;;;;;;8.98;5.80;;;;;;;18.28;86.99;101957.28;5008980;28;20045;-67
2023/08/16 07:32:44;;;;;;;8.57;5.72;;;;;;;18.28;86.96;101960.03;5009754;28;20113;-66
2023/08/16 07:35:09;;;;;;;9.43;5.22;;;;;;;18.34;86.73;101951.22;5026655;28;20034;-67
2023/08/16 07:37:35;;;;;;;10.43;6.30;;;;;;;18.37;84.87;101955.56;5029195;28;20086;-66
2023/08/16 07:40:01;;;;;;;11.55;5.05;;;;;;;18.47;85.19;101959.28;5027819;28;20424;-67
2023/08/16 07:42:27;;;;;;;9.25;5.32;;;;;;;18.52;84.23;101962.50;5027435;28;20021;-66
2023/08/16 07:44:52;;;;;;;11.18;4.95;;;;;;;18.64;84.91;101957.78;5029070;28;20055;-68
2023/08/16 07:47:17;;;;;;;7.63;5.80;;;;;;;18.71;84.88;101963.66;5029295;28;20589;-67
2023/08/16 07:49:43;;;;;;;8.10;5.18;;;;;;;18.81;83.60;101970.09;5015822;28;20433;-67
2023/08/16 07:52:09;;;;;;;10.60;4.90;;;;;;;18.92;80.49;101966.38;5010208;28;20034;-67
2023/08/16 07:54:34;;;;;;;12.05;4.90;;;;;;;19.00;81.95;101970.19;5009641;28;20080;-66
2023/08/16 07:56:59;;;;;;;5.93;3.83;;;;;;;19.27;83.39;101979.75;5013875;28;20499;-67
2023/08/16 07:59:25;;;;;;;10.30;4.20;;;;;;;19.61;82.21;101977.53;5019549;28;20050;-68
2023/08/16 08:01:51;;;;;;;12.48;3.97;;;;;;;19.76;79.74;101980.75;5014424;28;20048;-67
2023/08/16 08:04:18;;;;;;;6.90;3.63;;;;;;;19.67;76.82;101974.19;5001283;28;20116;-66
2023/08/16 08:06:43;;;;;;;7.57;4.00;;;;;;;19.74;77.52;101971.75;5028994;28;20049;-67
2023/08/16 08:09:09;;;;;;;5.95;3.30;;;;;;;19.93;79.41;101976.41;5027401;28;20047;-67
2023/08/16 08:11:36;;;;;;;9.45;3.80;;;;;;;20.07;76.74;101985.13;5027559;28;20482;-67
2023/08/16 08:14:02;;;;;;;8.45;2.80;;;;;;;20.30;77.95;101976.56;5028989;28;20037;-68
2023/08/16 08:16:28;;;;;;;6.05;3.13;;;;;;;20.61;80.38;101980.91;5023801;28;20386;-66
2023/08/16 08:18:54;;;;;;;6.60;2.88;;;;;;;21.00;78.32;101986.31;5015158;28;20145;-66
2023/08/16 08:21:19;;;;;;;4.10;2.53;;;;;;;21.49;74.93;101977.81;5009451;28;20068;-67
2023/08/16 08:23:45;;;;;;;6.30;2.60;;;;;;;21.52;69.92;101975.59;5026299;28;20461;-67
2023/08/16 08:26:10;;;;;;;5.80;2.58;;;;;;;21.47;68.79;101983.50;5010553;28;20018;-67
2023/08/16 08:28:37;;;;;;;5.07;2.30;;;;;;;21.68;68.03;101985.97;5010217;28;20034;-66
2023/08/16 08:31:05;;;;;;;4.38;2.35;;;;;;;22.06;68.95;101995.06;5008771;28;20524;-68
2023/08/16 08:33:31;;;;;;;4.28;2.22;;;;;;;22.41;67.07;101983.09;5012474;28;20037;-68
2023/08/16 08:35:58;;;;;;;7.60;2.38;;;;;;;22.88;65.58;101989.16;5027999;28;20107;-67
2023/08/16 08:38:23;;;;;;;5.40;2.22;;;;;;;23.17;65.67;101985.19;5028567;28;20052;-66
2023/08/16 08:40:56;;;;;;;7.68;1.85;;;;;;;23.57;66.80;101987.28;5019325;28;20038;-66
2023/08/16 08:43:27;;;;;;;7.18;1.70;;;;;;;23.91;64.16;101981.66;5013028;28;20206;-67
2023/08/16 08:45:56;;;;;;;5.03;1.90;;;;;;;24.38;63.48;101986.59;5028499;28;20037;-67
2023/08/16 08:48:25;;;;;;;10.32;1.90;;;;;;;24.49;58.89;101985.41;5023241;28;20041;-67
2023/08/16 08:50:51;;;;;;;5.03;1.65;;;;;;;24.43;57.25;101986.06;5008218;28;20452;-68
2023/08/16 08:53:17;;;;;;;4.75;1.75;;;;;;;24.75;61.25;101981.53;5026282;28;20140;-66
2023/08/16 08:55:45;;;;;;;6.97;1.80;;;;;;;24.80;55.21;101991.06;5012667;28;20030;-67
2023/08/16 08:58:12;;;;;;;4.20;2.00;;;;;;;24.76;58.36;101986.03;5008961;28;20137;-67
2023/08/16 09:00:39;;;;;;;3.88;1.58;;;;;;;24.74;59.45;101997.34;5007635;28;20049;-66
2023/08/16 09:03:07;;;;;;;5.18;1.90;;;;;;;24.47;58.03;101993.03;5007680;28;20045;-68
2023/08/16 09:05:33;;;;;;;4.20;2.38;;;;;;;24.40;58.71;101994.78;5028096;28;20128;-67
2023/08/16 09:08:00;;;;;;;6.47;2.35;;;;;;;24.40;61.25;101994.78;5021722;28;20473;-67
2023/08/16 09:10:26;;;;;;;4.90;1.83;;;;;;;24.53;62.76;101989.56;5008333;28;20053;-67
2023/08/16 09:12:52;;;;;;;10.18;2.38;;;;;;;24.28;56.49;101990.56;5014301;28;20072;-67
2023/08/16 09:15:18;;;;;;;3.25;2.10;;;;;;;23.97;59.45;101994.03;5011791;28;20495;-66
2023/08/16 09:17:45;;;;;;;5.63;2.03;;;;;;;23.97;61.65;101990.34;5011804;28;20029;-66
2023/08/16 09:20:11;;;;;;;6.30;2.60;;;;;;;23.83;59.04;101987.22;5011339;28;20481;-67
2023/08/16 09:22:37;;;;;;;6.00;2.28;;;;;;;23.56;59.61;101991.09;5008029;28;20053;-66
2023/08/16 09:25:03;;;;;;;5.20;2.50;;;;;;;23.54;61.85;101995.06;5007688;28;20509;-66
2023/08/16 09:27:31;;;;;;;10.05;2.50;;;;;;;23.61;59.08;102002.56;5007536;28;20026;-67
2023/08/16 09:29:56;;;;;;;8.35;2.75;;;;;;;23.88;62.37;101995.91;5011422;28;20038;-68
2023/08/16 09:32:26;;;;;;;5.57;2.88;;;;;;;23.79;58.29;102004.41;5020869;28;20080;-67
2023/08/16 09:34:53;;;;;;;3.47;2.00;;;;;;;23.83;62.16;102000.25;5007575;28;20046;-67
2023/08/16 09:37:19;;;;;;;5.22;2.42;;;;;;;24.10;60.75;101997.16;5007546;28;20189;-66
2023/08/16 09:39:54;;;;;;;6.07;2.22;;;;;;;24.31;60.54;101998.56;5006384;28;20038;-69
2023/08/16 09:42:20;;;;;;;8.85;2.50;;;;;;;24.60;60.58;101996.16;5009382;28;20034;-67
2023/08/16 09:44:47;;;;;;;7.72;2.30;;;;;;;24.84;60.91;101997.16;5023476;28;20511;-67
2023/08/16 09:47:16;;;;;;;8.27;2.97;;;;;;;24.74;57.96;101991.78;5027102;28;20041;-67
2023/08/16 09:49:44;;;;;;;3.33;1.65;;;;;;;24.85;57.13;101993.31;5013216;28;20552;-67
2023/08/16 09:52:11;;;;;;;7.30;2.30;;;;;;;24.88;58.05;101992.97;5008162;28;20098;-66
2023/08/16 09:54:37;;;;;;;4.65;2.30;;;;;;;25.06;59.23;101987.19;5008342;28;20030;-66
2023/08/16 09:57:04;;;;;;;6.07;1.92;;;;;;;25.26;55.30;101987.69;5007700;28;20042;-67
2023/08/16 09:59:31;;;;;;;2.72;1.60;;;;;;;25.25;57.94;101995.19;5006737;28;20045;-67
2023/08/16 10:01:58;;;;;;;7.38;2.50;;;;;;;25.18;55.62;101996.94;5006957;28;20497;-66
2023/08/16 10:04:24;;;;;;;7.13;2.55;;;;;;;25.12;57.15;101995.72;5016664;28;20042;-67
2023/08/16 10:06:50;;;;;;;3.42;2.10;;;;;;;25.19;57.10;101985.63;5007638;28;20389;-67
2023/08/16 10:09:16;;;;;;;5.47;2.63;;;;;;;25.14;55.96;101988.09;5012669;28;20027;-68
2023/08/16 10:11:44;;;;;;;7.55;2.50;;;;;;;25.39;59.36;101979.63;5024260;28;20493;-66
2023/08/16 10:14:11;;;;;;;5.28;2.42;;;;;;;25.35;55.81;101984.69;5007408;28;20056;-66
2023/08/16 10:16:38;;;;;;;4.60;2.25;;;;;;;25.49;57.99;101977.47;5025346;28;20537;-66
2023/08/16 10:19:04;;;;;;;8.90;2.72;;;;;;;25.62;56.54;101977.75;5019971;28;20045;-67
2023/08/16 10:21:33;;;;;;;9.57;2.95;;;;;;;25.68;56.79;101973.38;5026618;28;20493;-67
2023/08/16 10:24:00;;;;;;;5.18;2.35;;;;;;;25.67;55.55;101972.50;5027178;28;20132;-67
2023/08/16 10:26:30;;;;;;;5.07;1.85;;;;;;;25.74;56.64;101974.56;5025821;28;20422;-68
2023/08/16 10:28:59;;;;;;;6.35;2.40;;;;;;;25.27;54.59;101983.84;5016471;28;20041;-67
2023/08/16 10:31:30;;;;;;;6.70;2.40;;;;;;;25.34;58.96;101980.16;5005227;28;20022;-66
2023/08/16 10:33:58;;;;;;;4.80;2.05;;;;;;;25.40;57.68;101985.00;5007193;28;20042;-66
2023/08/16 10:36:24;;;;;;;7.45;2.60;;;;;;;25.09;55.01;101987.75;5010626;28;20026;-66
2023/08/16 10:38:56;;;;;;;4.68;2.53;;;;;;;24.87;57.99;101985.69;5010214;28;20161;-69
2023/08/16 10:41:22;;;;;;;6.97;2.55;;;;;;;24.78;57.44;101981.19;5010448;28;20428;-66
2023/08/16 10:43:52;;;;;;;7.82;3.03;;;;;;;25.02;58.81;101975.53;5011017;28;20026;-66
2023/08/16 10:46:31;;;;;;;6.80;2.85;;;;;;;25.27;58.97;101964.34;5010059;28;20099;-66
2023/08/16 10:48:58;;;;;;;12.00;3.10;;;;;;;25.47;57.31;101970.38;5019287;28;20033;-66
2023/08/16 10:51:25;;;;;;;7.18;2.72;;;;;;;25.54;57.03;101971.38;5030809;28;20025;-66
2023/08/16 10:53:50;;;;;;;7.45;2.53;;;;;;;25.68;54.21;101971.44;5030615;28;20037;-67
2023/08/16 10:56:19;;;;;;;6.03;2.50;;;;;;;25.74;55.22;101969.88;5029976;28;20106;-66
2023/08/16 10:58:49;;;;;;;3.90;2.60;;;;;;;25.63;54.70;101967.47;5011383;28;20133;-66
2023/08/16 11:01:15;;;;;;;6.65;2.38;;;;;;;25.66;56.19;101970.78;5024387;28;20049;-66
2023/08/16 11:03:43;;;;;;;4.03;2.33;;;;;;;25.65;55.60;101976.56;5022304;28;20041;-68
2023/08/16 11:06:14;;;;;;;5.68;2.58;;;;;;;25.70;57.38;101974.06;5030609;28;20489;-66
2023/08/16 11:08:43;;;;;;;6.93;3.05;;;;;;;25.66;54.56;101978.28;5030708;28;20048;-66
2023/08/16 11:11:10;;;;;;;6.22;2.92;;;;;;;25.53;56.82;101973.28;5044227;28;20048;-67
2023/08/16 11:13:35;;;;;;;6.78;3.42;;;;;;;25.47;56.85;101970.38;5019788;28;20037;-67
2023/08/16 11:16:01;;;;;;;6.00;2.53;;;;;;;25.54;56.49;101966.66;5025144;28;20481;-67
2023/08/16 11:18:28;;;;;;;4.38;2.47;;;;;;;25.78;56.60;101973.19;5009923;28;20453;-67